Terminal Aerodrome Forecast
Issued by NWS Cleveland, OH

Home | Current Version | Previous Version | Graphics & Text | Print | Product List | Glossary Off
Versions: 1 2 3 4 5 6 7 8 9 10 11 12 13 14 15 16 17 18 19 20 21 22 23

000
FTUS41 KCLE 060500
TAFMFD
TAF
KMFD 060538Z 0606/0706 08005KT 5SM BR SCT008 BKN150
      TEMPO 0606/0608 2SM BR OVC004
     FM060800 08004KT 1SM BR OVC003
      TEMPO 0609/0612 VRB03KT 1/2SM FG OVC002
     FM061300 VRB05KT 4SM BR BKN006
     FM061500 32006KT P6SM SCT015 BKN250=

USA.gov is the U.S. government's official web portal to all federal, state and local government web resources and services.